Time;durP1;ratioP1;P1;durP2;ratioP2;P2;SDS_P1;SDS_P2;PMS_P1;PMS_P2;Temp;Humidity;BMP_temperature;BMP_pressure;BME280_temperature;BME280_humidity;BME280_pressure;Samples;Min_cycle;Max_cycle;Signal;HPM_P1;HPM_P2
2023/11/07 00:00:58;;;;;;;5.20;2.93;;;18.50;62.40;;;;;;5001280;28;20444;-79
2023/11/07 00:03:27;;;;;;;5.23;2.80;;;18.50;62.30;;;;;;5005345;28;20442;-79
2023/11/07 00:05:56;;;;;;;3.53;3.10;;;18.50;62.30;;;;;;5008581;28;20445;-80
2023/11/07 00:08:24;;;;;;;4.40;3.07;;;18.50;62.40;;;;;;5005708;28;20492;-79
2023/11/07 00:10:52;;;;;;;4.80;2.67;;;18.40;62.30;;;;;;5008743;28;20452;-79
2023/11/07 00:13:20;;;;;;;4.57;2.90;;;18.50;62.30;;;;;;5008335;28;20815;-80
2023/11/07 00:15:48;;;;;;;5.53;3.03;;;18.50;62.30;;;;;;5003218;28;20473;-79
2023/11/07 00:18:17;;;;;;;3.50;3.20;;;18.50;62.30;;;;;;5000525;28;20477;-79
2023/11/07 00:20:46;;;;;;;8.27;2.97;;;18.50;62.10;;;;;;5004215;28;20433;-79
2023/11/07 00:23:14;;;;;;;3.47;2.53;;;18.50;62.30;;;;;;5003844;28;20416;-79
2023/11/07 00:25:42;;;;;;;2.80;2.47;;;18.50;62.10;;;;;;4998121;28;20446;-79
2023/11/07 00:28:11;;;;;;;4.93;2.87;;;18.50;62.40;;;;;;4998836;28;20466;-79
2023/11/07 00:30:39;;;;;;;3.10;2.57;;;18.50;62.40;;;;;;5001393;28;20471;-78
2023/11/07 00:33:07;;;;;;;5.50;2.90;;;18.40;62.20;;;;;;4999373;28;20465;-78
2023/11/07 00:35:38;;;;;;;2.70;2.50;;;18.40;62.30;;;;;;5002408;28;20521;-78
2023/11/07 00:38:06;;;;;;;6.47;2.70;;;18.40;62.40;;;;;;5001371;28;20433;-78
2023/11/07 00:40:34;;;;;;;4.07;2.70;;;18.40;62.30;;;;;;5001660;28;20453;-78
2023/11/07 00:43:03;;;;;;;4.17;2.87;;;18.40;62.60;;;;;;4995604;28;20457;-77
2023/11/07 00:45:31;;;;;;;7.33;3.07;;;18.40;62.40;;;;;;5001963;28;20472;-78
2023/11/07 00:47:59;;;;;;;3.33;2.83;;;18.40;62.40;;;;;;4996487;28;20535;-78
2023/11/07 00:50:27;;;;;;;3.90;2.90;;;18.40;62.70;;;;;;4992345;28;20441;-78
2023/11/07 00:52:57;;;;;;;3.90;2.70;;;18.30;62.70;;;;;;5002117;28;20460;-78
2023/11/07 00:55:24;;;;;;;2.60;2.40;;;18.40;62.70;;;;;;5001120;28;20928;-78
2023/11/07 00:57:52;;;;;;;2.70;2.23;;;18.30;62.40;;;;;;5002170;28;20557;-79
2023/11/07 01:00:21;;;;;;;8.87;3.40;;;18.30;62.50;;;;;;5000481;28;20461;-79
2023/11/07 01:02:49;;;;;;;5.40;2.77;;;18.30;62.40;;;;;;4999793;28;20449;-78
2023/11/07 01:05:18;;;;;;;3.70;2.90;;;18.30;62.40;;;;;;4998675;28;20545;-78
2023/11/07 01:07:46;;;;;;;4.63;2.80;;;18.30;62.40;;;;;;4998406;28;20437;-79
2023/11/07 01:10:17;;;;;;;9.43;2.87;;;18.30;62.30;;;;;;5000261;28;20469;-79
2023/11/07 01:12:46;;;;;;;3.43;2.60;;;18.30;62.10;;;;;;5000669;28;20457;-79
2023/11/07 01:15:14;;;;;;;3.77;2.70;;;18.30;62.60;;;;;;4992420;28;20472;-78
2023/11/07 01:17:42;;;;;;;4.33;2.67;;;18.20;62.50;;;;;;5003836;28;20481;-79
2023/11/07 01:20:11;;;;;;;2.83;2.40;;;18.20;62.60;;;;;;5006005;28;20473;-79
2023/11/07 01:22:40;;;;;;;4.47;2.73;;;18.20;62.10;;;;;;5003696;28;20457;-79
2023/11/07 01:25:09;;;;;;;3.00;2.70;;;18.20;62.40;;;;;;5002482;28;21093;-79
2023/11/07 01:27:38;;;;;;;4.57;2.60;;;18.20;62.10;;;;;;5000083;28;20484;-79
2023/11/07 01:30:09;;;;;;;2.70;2.50;;;18.10;62.20;;;;;;5000621;28;20497;-78
2023/11/07 01:32:38;;;;;;;7.60;2.80;;;18.20;62.60;;;;;;5000666;28;20437;-79
2023/11/07 01:35:07;;;;;;;3.10;2.40;;;18.20;62.20;;;;;;5001928;28;20473;-79
2023/11/07 01:37:35;;;;;;;3.53;2.43;;;18.10;62.40;;;;;;5001207;28;20481;-78
2023/11/07 01:40:04;;;;;;;3.50;2.70;;;18.10;62.30;;;;;;4998295;28;20540;-77
2023/11/07 01:42:44;;;;;;;4.47;3.30;;;18.10;62.10;;;;;;4995572;28;20492;-78
2023/11/07 01:45:13;;;;;;;4.80;3.03;;;18.10;62.20;;;;;;4997201;28;20453;-79
2023/11/07 01:47:41;;;;;;;4.60;2.73;;;18.10;62.40;;;;;;4998506;28;20529;-79
2023/11/07 01:50:10;;;;;;;4.83;2.70;;;18.10;62.10;;;;;;4998720;28;20461;-79
2023/11/07 01:52:38;;;;;;;4.60;2.90;;;18.10;61.90;;;;;;4999205;28;20437;-79
2023/11/07 01:55:07;;;;;;;3.87;2.63;;;18.10;62.30;;;;;;4997141;28;20980;-78
2023/11/07 01:57:35;;;;;;;3.10;2.40;;;18.00;62.10;;;;;;4996553;28;20469;-79
2023/11/07 02:00:12;;;;;;;3.90;2.50;;;18.10;62.20;;;;;;4996938;28;20461;-77
2023/11/07 02:02:40;;;;;;;3.07;2.87;;;18.00;62.10;;;;;;4997935;28;20475;-80
2023/11/07 02:05:10;;;;;;;3.40;2.60;;;18.00;62.30;;;;;;5000426;28;20448;-79
2023/11/07 02:07:38;;;;;;;3.40;2.87;;;18.00;63.10;;;;;;5000603;28;20479;-79
2023/11/07 03:30:12;;;;;;;4.57;2.53;;;18.00;63.60;;;;;;5003617;28;20413;-79
2023/11/07 03:32:41;;;;;;;2.70;2.50;;;18.00;63.50;;;;;;5000135;28;20461;-79
2023/11/07 03:35:09;;;;;;;6.00;3.00;;;18.00;63.40;;;;;;5003888;28;20488;-79
2023/11/07 03:37:39;;;;;;;3.70;2.67;;;18.10;63.40;;;;;;5007126;28;20461;-79
2023/11/07 03:40:08;;;;;;;3.40;2.93;;;18.10;63.30;;;;;;5007317;28;20468;-80
2023/11/07 03:42:36;;;;;;;3.97;2.90;;;18.10;63.20;;;;;;5011912;28;20442;-79
2023/11/07 03:45:06;;;;;;;2.90;2.70;;;18.10;63.10;;;;;;5005924;28;20445;-79
2023/11/07 03:47:36;;;;;;;3.83;2.83;;;18.20;63.00;;;;;;5005434;28;20492;-80
2023/11/07 03:50:05;;;;;;;3.17;2.90;;;18.20;63.10;;;;;;4999043;28;20479;-80
2023/11/07 03:52:33;;;;;;;4.13;2.67;;;18.20;63.10;;;;;;4999939;28;21083;-80
2023/11/07 03:55:01;;;;;;;5.10;2.63;;;18.20;62.90;;;;;;4984340;28;20516;-79
2023/11/07 03:57:30;;;;;;;2.83;2.60;;;18.20;63.20;;;;;;5003780;28;20435;-79
2023/11/07 03:59:59;;;;;;;2.97;2.70;;;18.20;63.00;;;;;;4996092;28;20526;-79
2023/11/07 04:02:27;;;;;;;5.33;3.13;;;18.20;63.20;;;;;;5004142;28;20441;-79
2023/11/07 04:04:57;;;;;;;4.83;2.90;;;18.20;63.30;;;;;;4990732;28;20505;-81
2023/11/07 04:07:25;;;;;;;4.77;3.00;;;18.20;63.00;;;;;;4986536;28;20453;-81
2023/11/07 04:09:53;;;;;;;3.00;2.77;;;18.20;63.00;;;;;;4994843;28;20497;-80
2023/11/07 04:12:21;;;;;;;4.30;3.20;;;18.20;63.20;;;;;;4996629;28;20481;-81
2023/11/07 04:14:50;;;;;;;15.63;3.40;;;18.20;63.10;;;;;;5003630;28;20476;-80
2023/11/07 04:17:18;;;;;;;4.93;2.77;;;18.20;63.10;;;;;;5005905;28;20445;-80
2023/11/07 04:19:47;;;;;;;5.27;2.57;;;18.20;63.10;;;;;;5005498;28;20484;-80
2023/11/07 04:22:17;;;;;;;3.50;3.20;;;18.20;63.10;;;;;;4995478;28;20480;-80
2023/11/07 04:24:45;;;;;;;3.20;2.80;;;18.30;63.30;;;;;;4990960;28;20473;-79
2023/11/07 04:27:14;;;;;;;7.13;3.87;;;18.30;63.10;;;;;;4997924;28;20452;-80
2023/11/07 04:29:42;;;;;;;4.73;3.00;;;18.30;63.10;;;;;;4997616;28;20489;-80
2023/11/07 04:32:11;;;;;;;3.07;2.77;;;18.30;63.20;;;;;;4994773;28;20875;-81
2023/11/07 04:34:39;;;;;;;7.00;2.53;;;18.30;63.30;;;;;;5000881;28;20482;-80
2023/11/07 04:37:07;;;;;;;5.90;3.27;;;18.30;63.20;;;;;;5004951;28;20536;-79
2023/11/07 04:39:37;;;;;;;3.57;2.70;;;18.30;63.30;;;;;;4996887;28;20469;-80
2023/11/07 04:42:07;;;;;;;3.47;2.70;;;18.30;63.40;;;;;;5004896;28;20437;-80
2023/11/07 04:44:35;;;;;;;3.20;2.80;;;18.30;63.30;;;;;;4997388;28;20478;-80
2023/11/07 04:47:05;;;;;;;2.93;2.73;;;18.30;63.20;;;;;;5009512;28;20447;-79
2023/11/07 04:49:34;;;;;;;4.50;3.07;;;18.30;63.00;;;;;;4997813;28;20544;-80
2023/11/07 04:52:02;;;;;;;3.10;2.80;;;18.30;63.30;;;;;;5004693;28;20540;-80
2023/11/07 04:54:31;;;;;;;2.90;2.60;;;18.30;63.10;;;;;;5005206;28;20448;-80
2023/11/07 04:57:00;;;;;;;3.77;2.80;;;18.30;63.20;;;;;;5005310;28;20473;-80
2023/11/07 04:59:29;;;;;;;4.87;2.87;;;18.30;63.20;;;;;;5002071;28;20474;-81
2023/11/07 05:01:57;;;;;;;2.60;2.40;;;18.30;63.40;;;;;;5002329;28;20453;-80
2023/11/07 05:04:25;;;;;;;5.30;2.80;;;18.30;63.30;;;;;;5005654;28;20452;-80
2023/11/07 05:06:54;;;;;;;5.67;2.80;;;18.30;63.40;;;;;;5005051;28;20453;-80
2023/11/07 05:09:25;;;;;;;3.90;2.90;;;18.30;63.30;;;;;;5004034;28;20473;-79
2023/11/07 05:11:54;;;;;;;5.30;3.10;;;18.30;63.20;;;;;;5004544;28;20434;-80
2023/11/07 05:14:23;;;;;;;4.20;3.20;;;18.30;63.40;;;;;;4996801;28;20459;-82
2023/11/07 05:16:51;;;;;;;4.90;3.20;;;18.30;63.20;;;;;;4992899;28;20515;-80
2023/11/07 05:19:19;;;;;;;5.47;3.23;;;18.30;63.10;;;;;;5004601;28;20476;-79
2023/11/07 05:21:47;;;;;;;3.20;2.80;;;18.30;63.20;;;;;;5002579;28;20477;-80
2023/11/07 05:24:15;;;;;;;5.70;2.73;;;18.30;63.20;;;;;;5012587;28;20467;-80
2023/11/07 05:26:49;;;;;;;3.60;3.30;;;18.30;62.80;;;;;;4999079;28;20464;-81
2023/11/07 05:29:18;;;;;;;5.03;3.13;;;18.20;63.00;;;;;;5006759;28;20464;-81
2023/11/07 05:31:47;;;;;;;3.63;3.00;;;18.20;63.00;;;;;;4989563;28;20446;-81
2023/11/07 05:34:17;;;;;;;3.23;2.70;;;18.20;63.10;;;;;;4997450;28;20454;-82
2023/11/07 05:36:46;;;;;;;4.23;3.20;;;18.20;63.00;;;;;;5002907;28;20477;-82
2023/11/07 05:39:15;;;;;;;3.67;3.00;;;18.20;63.00;;;;;;4999280;28;20465;-82
2023/11/07 05:41:46;;;;;;;4.13;3.00;;;18.20;63.10;;;;;;5011325;28;20465;-80
2023/11/07 05:44:15;;;;;;;2.97;2.70;;;18.20;63.00;;;;;;5007597;28;20457;-81
2023/11/07 05:46:43;;;;;;;7.30;3.00;;;18.20;63.00;;;;;;5009155;28;20432;-80
2023/11/07 05:49:13;;;;;;;6.50;3.30;;;18.20;63.00;;;;;;5013525;28;20512;-78
2023/11/07 05:51:41;;;;;;;4.03;3.10;;;18.10;62.90;;;;;;5005188;28;20433;-80
2023/11/07 05:54:09;;;;;;;2.73;2.53;;;18.10;63.10;;;;;;5001450;28;20461;-81
2023/11/07 05:56:38;;;;;;;4.17;3.40;;;18.10;63.10;;;;;;4998191;28;20465;-81
2023/11/07 05:59:07;;;;;;;4.57;2.90;;;18.10;63.10;;;;;;5009549;28;20469;-82
2023/11/07 06:01:35;;;;;;;4.27;2.90;;;18.10;63.00;;;;;;5006059;28;20450;-82
2023/11/07 06:04:08;;;;;;;4.50;2.90;;;18.10;63.10;;;;;;5001273;28;20453;-80
2023/11/07 06:06:38;;;;;;;4.43;3.20;;;18.10;63.10;;;;;;5008398;28;20464;-80
2023/11/07 06:09:06;;;;;;;3.90;3.10;;;18.10;63.10;;;;;;5012799;28;20465;-78
2023/11/07 06:11:35;;;;;;;4.10;2.73;;;18.10;63.10;;;;;;5011418;28;20469;-81
2023/11/07 06:14:04;;;;;;;4.43;2.77;;;18.20;63.10;;;;;;5008902;28;20944;-81
2023/11/07 06:16:32;;;;;;;4.30;3.30;;;18.20;62.80;;;;;;5017718;28;20500;-82
2023/11/07 06:19:01;;;;;;;2.97;2.77;;;18.10;63.10;;;;;;5014693;28;20487;-81
2023/11/07 06:21:29;;;;;;;4.03;3.27;;;18.10;63.20;;;;;;5008204;28;20456;-82
2023/11/07 06:23:59;;;;;;;3.40;3.10;;;18.10;63.00;;;;;;5008387;28;20465;-82
2023/11/07 06:26:27;;;;;;;6.00;3.17;;;18.10;63.10;;;;;;5016030;28;20445;-81
2023/11/07 06:28:56;;;;;;;8.00;3.20;;;18.10;63.10;;;;;;5010289;28;20465;-82
2023/11/07 06:31:27;;;;;;;3.40;2.97;;;18.10;63.20;;;;;;5008131;28;20449;-83
2023/11/07 06:33:55;;;;;;;3.07;2.87;;;18.20;63.30;;;;;;5013246;28;20452;-81
2023/11/07 06:36:24;;;;;;;3.33;2.63;;;18.10;63.00;;;;;;5004120;28;20480;-81
2023/11/07 06:38:52;;;;;;;3.47;3.17;;;18.10;63.10;;;;;;5006965;28;20468;-81
2023/11/07 06:41:22;;;;;;;5.37;3.17;;;18.10;63.30;;;;;;4998209;28;20449;-82
2023/11/07 06:43:50;;;;;;;3.67;3.30;;;18.20;63.30;;;;;;4996816;28;20483;-81
2023/11/07 06:50:27;;;;;;;6.60;3.70;;;18.20;63.30;;;;;;4960776;29;20466;-84
2023/11/07 06:52:55;;;;;;;3.80;3.30;;;18.10;63.00;;;;;;4964872;29;20463;-84
2023/11/07 06:55:24;;;;;;;5.97;3.33;;;18.10;63.60;;;;;;5003814;28;20469;-84
2023/11/07 06:57:55;;;;;;;6.17;3.03;;;18.10;63.40;;;;;;4991391;28;20473;-81
2023/11/07 07:00:25;;;;;;;3.50;3.10;;;18.10;63.10;;;;;;5002988;28;20524;-81
2023/11/07 07:02:55;;;;;;;5.27;3.50;;;18.10;63.20;;;;;;4990166;28;20457;-82
2023/11/07 07:05:25;;;;;;;5.47;3.63;;;18.10;63.40;;;;;;4998815;28;20445;-81
2023/11/07 07:07:54;;;;;;;6.30;3.37;;;18.10;63.20;;;;;;5009986;28;20438;-83
2023/11/07 07:10:23;;;;;;;5.87;3.90;;;18.10;63.10;;;;;;5008736;28;20494;-81
2023/11/07 07:12:57;;;;;;;5.33;2.97;;;18.20;63.30;;;;;;4996937;28;20426;-81
2023/11/07 07:15:30;;;;;;;6.30;3.80;;;18.20;63.30;;;;;;5001875;28;20536;-82
2023/11/07 07:18:04;;;;;;;3.70;3.30;;;18.20;63.30;;;;;;5001145;28;20507;-82
2023/11/07 07:20:36;;;;;;;5.93;4.17;;;18.20;63.10;;;;;;5000957;28;20456;-82
2023/11/07 07:23:08;;;;;;;5.20;3.97;;;18.20;63.00;;;;;;5000080;28;20488;-81
2023/11/07 07:25:37;;;;;;;4.10;3.67;;;18.20;63.20;;;;;;4996937;28;20448;-82
2023/11/07 07:28:06;;;;;;;5.13;3.73;;;18.30;63.30;;;;;;4995289;28;20461;-81
2023/11/07 07:30:37;;;;;;;4.80;4.20;;;18.30;63.30;;;;;;5002319;28;20441;-81
2023/11/07 07:33:07;;;;;;;6.80;4.20;;;18.30;63.20;;;;;;5007824;28;20442;-82
2023/11/07 07:35:37;;;;;;;5.10;4.37;;;18.30;62.90;;;;;;5015063;28;20541;-81
2023/11/07 07:38:09;;;;;;;5.63;4.13;;;18.30;63.10;;;;;;4998427;28;20477;-83
2023/11/07 07:40:41;;;;;;;6.40;4.60;;;18.40;63.10;;;;;;5007446;28;20472;-83
2023/11/07 07:43:11;;;;;;;5.00;4.00;;;18.40;62.90;;;;;;5006368;28;20528;-82
2023/11/07 07:45:42;;;;;;;5.40;4.27;;;18.40;62.80;;;;;;5011560;28;20449;-82
2023/11/07 07:48:11;;;;;;;4.33;3.83;;;18.40;62.90;;;;;;5002722;28;20476;-84
2023/11/07 07:50:41;;;;;;;5.00;4.10;;;18.40;62.60;;;;;;5004582;28;20445;-82
2023/11/07 07:53:10;;;;;;;6.00;4.47;;;18.40;62.80;;;;;;5004147;28;20550;-82
2023/11/07 07:55:43;;;;;;;6.07;4.40;;;18.40;63.00;;;;;;5001376;28;20464;-81
2023/11/07 07:58:12;;;;;;;5.47;4.90;;;18.50;62.60;;;;;;4993147;28;20466;-83
2023/11/07 08:00:43;;;;;;;5.30;4.70;;;18.50;62.40;;;;;;4998064;28;20454;-83
2023/11/07 08:03:12;;;;;;;7.63;4.63;;;18.50;62.60;;;;;;4995765;28;20449;-83
2023/11/07 08:05:42;;;;;;;8.03;4.50;;;18.50;62.70;;;;;;5000471;28;20469;-82
2023/11/07 08:08:11;;;;;;;6.10;4.37;;;18.50;62.20;;;;;;5005021;28;20445;-82
2023/11/07 08:10:40;;;;;;;7.30;4.63;;;18.50;62.50;;;;;;4999866;28;20968;-82
2023/11/07 08:13:09;;;;;;;4.50;4.10;;;18.50;62.30;;;;;;4994012;28;20449;-83
2023/11/07 08:15:38;;;;;;;4.20;3.90;;;18.50;62.30;;;;;;4990819;28;20473;-82
2023/11/07 08:18:16;;;;;;;5.30;4.20;;;18.50;62.40;;;;;;5000241;28;20480;-85
2023/11/07 08:20:45;;;;;;;6.93;3.93;;;18.50;62.10;;;;;;5000684;28;20445;-83
2023/11/07 08:23:13;;;;;;;4.47;4.07;;;18.50;62.40;;;;;;4998681;28;20515;-83
2023/11/07 08:25:41;;;;;;;6.17;4.40;;;18.50;62.40;;;;;;5001862;28;20479;-82
2023/11/07 08:28:09;;;;;;;8.37;4.23;;;18.50;62.30;;;;;;4990850;28;20457;-82
2023/11/07 08:30:38;;;;;;;5.50;4.13;;;18.40;61.90;;;;;;4998039;28;20519;-81
2023/11/07 08:33:07;;;;;;;6.43;4.13;;;18.40;62.00;;;;;;4995851;28;20537;-83
2023/11/07 08:35:38;;;;;;;5.77;4.07;;;18.40;62.40;;;;;;4997690;28;20499;-82
2023/11/07 08:38:07;;;;;;;4.57;4.17;;;18.40;62.50;;;;;;5000650;28;20569;-84
2023/11/07 08:40:36;;;;;;;4.77;4.10;;;18.40;62.40;;;;;;4989303;28;20545;-83
2023/11/07 08:43:04;;;;;;;7.77;4.50;;;18.40;62.30;;;;;;4997616;28;20445;-83
2023/11/07 08:45:33;;;;;;;6.50;4.23;;;18.40;62.50;;;;;;4991674;28;20434;-82
2023/11/07 08:48:01;;;;;;;5.10;3.77;;;18.40;62.40;;;;;;5000593;28;20461;-84
2023/11/07 08:50:30;;;;;;;6.60;4.13;;;18.40;62.70;;;;;;4996399;28;20437;-83
2023/11/07 08:53:04;;;;;;;5.40;3.73;;;18.50;62.30;;;;;;4999542;28;20457;-83
2023/11/07 08:55:34;;;;;;;4.90;4.37;;;18.50;62.60;;;;;;4995647;28;20453;-81
2023/11/07 08:58:03;;;;;;;8.50;4.27;;;18.50;62.60;;;;;;4995844;28;20470;-83
2023/11/07 09:00:33;;;;;;;7.10;3.90;;;18.50;62.40;;;;;;4998237;28;20445;-84
2023/11/07 09:03:02;;;;;;;3.90;3.47;;;18.50;62.50;;;;;;5000633;28;20536;-81
2023/11/07 09:05:32;;;;;;;4.90;4.40;;;18.60;62.70;;;;;;4995447;28;20476;-80
2023/11/07 09:08:04;;;;;;;4.60;4.00;;;18.60;62.40;;;;;;4997391;28;20449;-79
2023/11/07 09:10:32;;;;;;;5.60;4.13;;;18.70;62.20;;;;;;5006093;28;20456;-80
2023/11/07 09:13:02;;;;;;;7.70;4.40;;;18.70;62.20;;;;;;5002125;28;20449;-79
2023/11/07 09:15:31;;;;;;;4.90;4.03;;;18.70;62.10;;;;;;4994123;28;20453;-80
2023/11/07 09:17:59;;;;;;;4.80;4.27;;;18.70;62.10;;;;;;4989748;28;20502;-81
2023/11/07 09:20:27;;;;;;;6.33;4.33;;;18.70;62.90;;;;;;5019538;23;20488;-82
2023/11/07 09:22:55;;;;;;;7.37;4.40;;;18.80;62.20;;;;;;5000532;28;20458;-80
2023/11/07 09:25:24;;;;;;;5.80;3.80;;;18.70;61.90;;;;;;5010383;28;20436;-80
2023/11/07 09:27:53;;;;;;;5.50;4.00;;;18.70;62.50;;;;;;5001600;28;20442;-80
2023/11/07 09:30:21;;;;;;;4.20;3.70;;;18.70;62.30;;;;;;5006997;28;20468;-78
2023/11/07 09:32:50;;;;;;;9.30;4.40;;;18.80;62.50;;;;;;5018992;28;20443;-81
2023/11/07 09:35:18;;;;;;;5.37;4.30;;;18.80;62.40;;;;;;5007273;28;20433;-81
2023/11/07 09:37:46;;;;;;;4.70;4.00;;;18.80;62.50;;;;;;5014567;28;20530;-82
2023/11/07 09:40:19;;;;;;;5.47;3.60;;;18.80;63.10;;;;;;5012933;28;20460;-82
2023/11/07 09:42:54;;;;;;;4.10;3.70;;;18.80;62.30;;;;;;5014986;28;20491;-80
2023/11/07 09:45:22;;;;;;;6.07;4.00;;;18.90;62.50;;;;;;5018714;28;20907;-79
2023/11/07 09:47:50;;;;;;;4.73;4.23;;;18.90;62.40;;;;;;5005822;28;20457;-79
2023/11/07 09:50:19;;;;;;;4.67;3.97;;;18.90;62.30;;;;;;5006934;28;20452;-79
2023/11/07 09:52:51;;;;;;;4.97;4.17;;;19.00;62.60;;;;;;5015088;28;20503;-78
2023/11/07 09:55:23;;;;;;;4.10;3.70;;;19.00;62.50;;;;;;5015759;28;20490;-76
2023/11/07 09:57:56;;;;;;;8.53;3.57;;;19.10;62.60;;;;;;5000034;28;20437;-78
2023/11/07 10:00:39;;;;;;;5.07;3.67;;;19.20;62.60;;;;;;5006462;28;20478;-77
2023/11/07 10:03:07;;;;;;;4.40;3.57;;;19.20;62.40;;;;;;5011922;28;20494;-78
2023/11/07 10:05:38;;;;;;;5.60;3.67;;;19.30;62.40;;;;;;5012747;28;20486;-79
2023/11/07 10:08:06;;;;;;;6.53;3.90;;;19.30;62.00;;;;;;5015539;28;20448;-78
2023/11/07 10:10:35;;;;;;;8.63;3.80;;;19.40;62.30;;;;;;5001719;28;20468;-79
2023/11/07 10:13:12;;;;;;;4.70;3.60;;;19.60;62.50;;;;;;5009929;28;20441;-79
2023/11/07 10:15:40;;;;;;;5.93;3.47;;;19.90;62.30;;;;;;5016900;28;20465;-78
2023/11/07 10:18:10;;;;;;;4.40;3.67;;;20.00;61.80;;;;;;5007035;28;20440;-79
2023/11/07 10:20:48;;;;;;;4.50;3.50;;;20.10;61.70;;;;;;4998140;28;20469;-78
2023/11/07 10:23:17;;;;;;;4.23;3.80;;;20.20;61.50;;;;;;5005101;28;20459;-78
2023/11/07 10:25:49;;;;;;;3.70;3.20;;;20.40;61.60;;;;;;5015696;28;20495;-78
2023/11/07 10:28:22;;;;;;;8.93;3.30;;;20.60;62.10;;;;;;5004770;28;20437;-78
2023/11/07 10:30:50;;;;;;;4.23;3.50;;;20.80;61.50;;;;;;5001611;28;20512;-78
2023/11/07 10:33:25;;;;;;;5.17;4.27;;;21.00;61.30;;;;;;5011869;28;20483;-79
2023/11/07 10:35:55;;;;;;;5.30;3.50;;;21.20;61.00;;;;;;5016316;28;20446;-80
2023/11/07 10:38:23;;;;;;;6.40;3.83;;;21.40;61.20;;;;;;5006060;28;20449;-78
2023/11/07 10:40:51;;;;;;;4.40;3.43;;;21.60;60.70;;;;;;5011462;28;20522;-78
2023/11/07 10:43:33;;;;;;;6.17;3.80;;;21.60;60.40;;;;;;5013072;28;21004;-78
2023/11/07 10:46:03;;;;;;;6.10;3.80;;;21.60;60.30;;;;;;5007026;28;20416;-80
2023/11/07 10:48:32;;;;;;;6.40;3.50;;;21.60;60.10;;;;;;5014978;28;20412;-80
2023/11/07 10:51:03;;;;;;;7.10;3.73;;;21.60;60.20;;;;;;5012107;28;20480;-80
2023/11/07 10:53:33;;;;;;;6.30;3.67;;;21.80;60.40;;;;;;5006178;28;20451;-79
2023/11/07 10:56:02;;;;;;;4.20;3.60;;;21.80;60.30;;;;;;5005515;28;20563;-79
2023/11/07 10:58:32;;;;;;;3.37;3.07;;;21.80;60.00;;;;;;5007772;28;20412;-79
2023/11/07 11:01:03;;;;;;;3.63;3.40;;;21.90;59.90;;;;;;5006142;28;20472;-78
2023/11/07 11:03:34;;;;;;;3.07;2.87;;;22.00;60.00;;;;;;5001499;28;20425;-78
2023/11/07 11:06:02;;;;;;;4.40;3.67;;;22.00;60.00;;;;;;4997554;28;20488;-79
2023/11/07 11:08:30;;;;;;;3.43;3.00;;;22.00;59.60;;;;;;5009987;28;20415;-78
2023/11/07 11:10:58;;;;;;;5.87;3.80;;;22.20;60.10;;;;;;5013144;28;20453;-77
2023/11/07 11:13:27;;;;;;;6.67;3.80;;;22.30;60.10;;;;;;5004904;28;20521;-78
2023/11/07 11:15:57;;;;;;;4.53;3.07;;;22.30;59.60;;;;;;5005314;28;20434;-77
2023/11/07 11:18:27;;;;;;;5.77;3.53;;;22.30;59.40;;;;;;5007538;28;20433;-79
2023/11/07 11:21:02;;;;;;;3.20;3.00;;;22.20;59.50;;;;;;5010655;28;20471;-78
2023/11/07 11:23:36;;;;;;;5.00;3.60;;;22.10;59.70;;;;;;4998828;28;20443;-78
2023/11/07 11:26:11;;;;;;;4.47;3.30;;;22.00;59.80;;;;;;5006994;28;20463;-78
2023/11/07 11:28:40;;;;;;;4.67;3.50;;;21.90;59.90;;;;;;5011774;28;20448;-78
2023/11/07 11:31:14;;;;;;;5.53;3.80;;;21.80;60.10;;;;;;5020121;28;20464;-75
2023/11/07 11:34:25;;;;;;;5.30;3.60;;;21.70;60.30;;;;;;5006885;28;20465;-78
2023/11/07 11:36:56;;;;;;;3.73;3.43;;;21.60;60.50;;;;;;5012209;28;20444;-78
2023/11/07 11:39:43;;;;;;;4.00;3.57;;;21.60;60.50;;;;;;5007440;28;20520;-79
2023/11/07 11:42:11;;;;;;;5.07;4.07;;;21.50;60.80;;;;;;5003283;28;20540;-79
2023/11/07 11:44:39;;;;;;;5.00;3.60;;;21.50;60.70;;;;;;5006155;28;20959;-78
2023/11/07 11:47:10;;;;;;;4.67;4.20;;;21.40;60.70;;;;;;5014057;28;20483;-77
2023/11/07 11:49:42;;;;;;;4.97;4.03;;;21.40;61.00;;;;;;4996001;28;20467;-77
2023/11/07 11:52:31;;;;;;;5.93;4.03;;;21.30;61.60;;;;;;4995149;28;20479;-79
2023/11/07 11:55:04;;;;;;;4.53;4.10;;;21.30;61.20;;;;;;4995498;28;20483;-77
2023/11/07 11:57:32;;;;;;;4.43;4.00;;;21.20;61.10;;;;;;5008251;28;20452;-78
2023/11/07 12:00:00;;;;;;;4.00;3.70;;;21.20;61.40;;;;;;4994682;28;20516;-78
2023/11/07 12:02:39;;;;;;;5.07;3.90;;;21.10;61.30;;;;;;4996026;28;20453;-79
2023/11/07 12:05:16;;;;;;;3.70;3.40;;;21.30;62.00;;;;;;5009011;28;20479;-77
2023/11/07 12:07:46;;;;;;;4.93;3.50;;;21.50;61.70;;;;;;5011715;28;20480;-77
2023/11/07 12:10:17;;;;;;;4.10;3.70;;;21.50;61.20;;;;;;4994240;28;20519;-76
2023/11/07 12:12:51;;;;;;;4.27;3.87;;;21.50;61.40;;;;;;4993891;28;20445;-77
2023/11/07 12:15:19;;;;;;;4.50;4.10;;;21.60;61.70;;;;;;4993548;28;20968;-77
2023/11/07 12:17:51;;;;;;;4.90;4.10;;;21.70;61.30;;;;;;4993096;28;20519;-78
2023/11/07 12:20:19;;;;;;;6.00;4.40;;;21.70;60.50;;;;;;5008705;28;20476;-78
2023/11/07 12:22:48;;;;;;;4.20;3.83;;;21.60;60.50;;;;;;4995016;28;20468;-78
2023/11/07 12:25:17;;;;;;;4.83;4.30;;;21.60;60.80;;;;;;5001526;28;20491;-78
2023/11/07 12:28:02;;;;;;;4.93;4.23;;;21.50;60.60;;;;;;5011489;28;20495;-76
2023/11/07 12:30:30;;;;;;;5.20;3.93;;;21.50;60.80;;;;;;4997484;28;20473;-78
2023/11/07 12:33:00;;;;;;;4.30;3.90;;;21.40;60.90;;;;;;5011754;28;20515;-77
2023/11/07 12:35:30;;;;;;;4.50;4.10;;;21.40;61.20;;;;;;5012098;28;20905;-78
2023/11/07 12:37:58;;;;;;;4.47;4.07;;;21.40;61.50;;;;;;5012155;28;20444;-78
2023/11/07 12:40:26;;;;;;;5.10;4.60;;;21.50;61.90;;;;;;5011925;28;20468;-77
2023/11/07 12:42:55;;;;;;;4.97;4.30;;;21.60;61.40;;;;;;5014969;28;20547;-77
2023/11/07 12:45:25;;;;;;;5.20;3.83;;;21.60;61.00;;;;;;5011679;28;20524;-78
2023/11/07 12:47:57;;;;;;;4.10;3.70;;;21.50;60.90;;;;;;4995801;28;20444;-78
2023/11/07 12:50:32;;;;;;;3.77;3.47;;;21.40;60.90;;;;;;5004651;28;20468;-77
2023/11/07 12:53:02;;;;;;;4.57;4.00;;;21.30;60.90;;;;;;4994272;28;20437;-78
2023/11/07 12:55:30;;;;;;;4.77;4.33;;;21.20;61.30;;;;;;4991926;28;20484;-77
2023/11/07 12:58:00;;;;;;;4.80;4.20;;;21.20;61.50;;;;;;4991975;28;20449;-77
2023/11/07 13:00:28;;;;;;;4.53;4.13;;;21.10;61.60;;;;;;5000568;28;20469;-78
2023/11/07 13:02:57;;;;;;;4.37;3.80;;;21.10;61.80;;;;;;5006660;28;20451;-77
2023/11/07 13:05:27;;;;;;;4.80;4.30;;;21.10;62.20;;;;;;4991966;28;20460;-78
2023/11/07 13:07:55;;;;;;;4.30;3.90;;;21.40;62.40;;;;;;5008502;28;20456;-78
2023/11/07 13:10:23;;;;;;;4.60;4.20;;;21.40;61.70;;;;;;5001086;28;20489;-79
2023/11/07 13:12:51;;;;;;;4.03;3.63;;;21.40;61.40;;;;;;5008613;28;20440;-80
2023/11/07 13:15:20;;;;;;;4.77;4.23;;;21.40;61.60;;;;;;5011790;28;20523;-79
2023/11/07 13:17:57;;;;;;;4.63;4.23;;;21.30;61.40;;;;;;5009624;28;20936;-78
2023/11/07 13:20:27;;;;;;;4.50;4.10;;;21.30;61.40;;;;;;4991653;28;20507;-77
2023/11/07 13:22:55;;;;;;;5.33;4.40;;;21.20;61.50;;;;;;4991876;28;20441;-77
2023/11/07 13:25:24;;;;;;;5.47;4.10;;;21.20;61.80;;;;;;4992307;28;20437;-78
2023/11/07 13:27:53;;;;;;;4.50;4.10;;;21.20;62.00;;;;;;5003208;28;20525;-77
2023/11/07 13:30:21;;;;;;;4.60;4.20;;;21.20;61.90;;;;;;4994977;28;20515;-76
2023/11/07 13:32:49;;;;;;;4.03;3.53;;;21.20;61.80;;;;;;4995971;28;20548;-76
2023/11/07 13:35:17;;;;;;;6.13;4.30;;;21.10;61.70;;;;;;5002425;28;20441;-77
2023/11/07 13:37:49;;;;;;;5.23;4.30;;;21.10;61.80;;;;;;4996396;28;20969;-78
2023/11/07 13:40:17;;;;;;;4.60;4.20;;;21.00;62.00;;;;;;5001665;28;20484;-75
2023/11/07 13:42:46;;;;;;;5.40;4.43;;;21.00;62.10;;;;;;4996458;28;20460;-75
2023/11/07 13:45:14;;;;;;;5.40;4.10;;;20.90;62.00;;;;;;4999198;28;20459;-77
2023/11/07 13:47:43;;;;;;;5.13;4.37;;;20.80;62.00;;;;;;5004787;28;20516;-77
2023/11/07 13:50:11;;;;;;;5.30;4.20;;;20.80;62.30;;;;;;4999709;28;20444;-78
2023/11/07 13:52:40;;;;;;;4.90;4.40;;;20.80;62.20;;;;;;4991889;28;20499;-79
2023/11/07 13:55:10;;;;;;;4.77;4.27;;;20.80;62.30;;;;;;4991732;28;20952;-79
2023/11/07 13:57:40;;;;;;;6.20;4.60;;;20.70;62.80;;;;;;4993072;28;20434;-76
2023/11/07 14:00:11;;;;;;;6.70;4.67;;;20.80;62.60;;;;;;4994720;28;20515;-78
2023/11/07 14:02:40;;;;;;;4.63;4.23;;;20.80;62.60;;;;;;5010062;28;20522;-77
2023/11/07 14:05:09;;;;;;;4.60;4.10;;;20.90;62.80;;;;;;5011842;28;20463;-77
2023/11/07 14:07:37;;;;;;;5.47;4.30;;;20.90;62.40;;;;;;5005607;28;20490;-77
2023/11/07 14:10:10;;;;;;;4.23;3.80;;;20.90;62.60;;;;;;5015171;28;20470;-76
2023/11/07 14:12:42;;;;;;;4.97;4.30;;;20.80;62.40;;;;;;5001297;28;20465;-79
2023/11/07 14:15:11;;;;;;;5.60;4.33;;;20.80;62.60;;;;;;4997238;28;20433;-77
2023/11/07 14:17:41;;;;;;;5.00;4.60;;;20.70;62.60;;;;;;5000815;28;20441;-78
2023/11/07 14:20:13;;;;;;;4.47;4.03;;;20.70;62.90;;;;;;5006231;28;20476;-78
2023/11/07 14:22:41;;;;;;;6.20;4.40;;;20.70;62.80;;;;;;5021773;28;20452;-77
2023/11/07 14:25:11;;;;;;;4.63;4.23;;;20.60;62.80;;;;;;5002550;28;20449;-75